Filia Joy — 3FIN9 — position and weather

sailwx.info

Track history (hours):
 
Tides and Currents Weather Stations Pressure Air Temp Water Temp Dewpoint Dewpoint Depression Visibility Wind Speed Wind Dir Waves Ship Positions

Filia Joy

Last reported at 2016-Jan-14 17:32 UTC. Time now 2016-Feb-09 03:28 UTC.
Position N 26°34' W 014°52'.
Warning: this ship's position is 25 days out of date.

Length 190 m; draft 11.4 m.

Type: Cargo ship. MMSI: 371999000.

Date/timePositionNaut miles runAvg speedWind from/ knotsBaromVisibWave heightAir tempDewpointWater temp
2016-Jan-14 17:32N 26°34' W 014°52'1212.4
2016-Jan-14 16:33N 26°43' W 014°43'1212.0
2016-Jan-14 15:33N 26°53' W 014°35'1212.0
2016-Jan-14 14:33N 27°02' W 014°27'1212.2
2016-Jan-14 13:33N 27°12' W 014°18'1212.2
2016-Jan-14 12:34N 27°21' W 014°10'1212.2
2016-Jan-14 11:33N 27°31' W 014°01'1212.5
2016-Jan-14 10:33N 27°41' W 013°53'1312.9
2016-Jan-14 09:33N 27°51' W 013°44'1313.1
2016-Jan-14 08:33N 28°01' W 013°35'1313.2
2016-Jan-14 07:33N 28°12' W 013°26'15312.5
2016-Jan-13 19:17N 30°17' W 011°45'912.3
2016-Jan-13 18:31N 30°25' W 011°39'5312.0
2016-Jan-13 14:06N 31°08' W 011°03'611.6
2016-Jan-13 13:33N 31°13' W 010°59'1211.6
2016-Jan-13 12:33N 31°23' W 010°51'1312.1
2016-Jan-13 11:31N 31°33' W 010°42'1211.9
2016-Jan-13 10:31N 31°43' W 010°34'1211.9
2016-Jan-13 09:33N 31°52' W 010°26'1212.3
2016-Jan-13 08:33N 32°02' W 010°18'1212.4
2016-Jan-13 07:33N 32°12' W 010°09'1211.9
2016-Jan-13 06:31N 32°22' W 010°01'1211.9
2016-Jan-13 05:33N 32°32' W 009°53'30011.1
2016-Jan-12 02:33N 35°59' W 005°31'10 9.7
2016-Jan-12 01:33N 36°02' W 005°19'111 9.8
2016-Jan-11 14:18N 36°20' W 003°04'8 9.3
2016-Jan-11 13:30N 36°21' W 002°55'8 9.1
2016-Jan-11 12:33N 36°22' W 002°44'9 8.6
2016-Jan-11 11:32N 36°23' W 002°33'9 8.9
2016-Jan-11 10:31N 36°25' W 002°22'9 9.1
2016-Jan-11 09:30N 36°27' W 002°11'50810.2
2016-Jan-09 07:32N 37°35' E 008°20'3210.5
2016-Jan-09 04:29N 37°37' E 008°60'23710.4
2016-Jan-08 05:33N 36°26' E 013°43'10 9.9
2016-Jan-08 04:32N 36°21' E 013°54'10 9.8
2016-Jan-08 03:33N 36°19' E 014°06'1010.3
2016-Jan-08 02:33N 36°19' E 014°19'10 9.9
2016-Jan-08 01:33N 36°19' E 014°31'10 9.9
2016-Jan-08 00:33N 36°19' E 014°43'432 9.2
2016-Jan-06 01:33N 37°19' E 023°38'1212.3
2016-Jan-06 00:33N 37°31' E 023°41'1312.6
2016-Jan-05 23:33N 37°43' E 023°39'1010.4
2016-Jan-05 22:34N 37°51' E 023°31'0 0.3
2016-Jan-05 21:31N 37°51' E 023°30'0 0.0
2016-Jan-05 20:31N 37°51' E 023°30'0 0.0
2016-Jan-05 19:31N 37°51' E 023°30'0 0.0
2016-Jan-05 18:25N 37°51' E 023°30'0 0.0
2016-Jan-05 17:31N 37°51' E 023°30'0 0.1
2016-Jan-05 16:31N 37°51' E 023°30'0 0.0
2016-Jan-05 15:31N 37°51' E 023°30'0 0.0
2016-Jan-05 14:31N 37°51' E 023°30'0 0.0
2016-Jan-05 13:31N 37°51' E 023°30'0 0.3
2016-Jan-05 12:31N 37°51' E 023°30'2 2.4
2016-Jan-05 11:33N 37°51' E 023°33'7 6.5
2016-Jan-05 10:34N 37°49' E 023°41'1111.0
2016-Jan-05 09:33N 37°39' E 023°49'1511.6
2016-Jan-05 08:14N 37°38' E 024°08'812.1
2016-Jan-05 07:33N 37°43' E 024°16'  
Track history (hours):
 
Tides and Currents Weather Stations Pressure Air Temp Water Temp Dewpoint Dewpoint Depression Visibility Wind Speed Wind Dir Waves Ship Positions

Filia Joy

Last reported at 2016-Jan-14 17:32 UTC. Time now 2016-Feb-09 03:28 UTC.
Position N 26°34' W 014°52'.
Warning: this ship's position is 25 days out of date.

Length 190 m; draft 11.4 m.

Type: Cargo ship. MMSI: 371999000.

Date/timePositionNaut miles runAvg speedWind from/ knotsBaromVisibWave heightAir tempDewpointWater temp
2016-Jan-14 17:32N 26°34' W 014°52'1212.4
2016-Jan-14 16:33N 26°43' W 014°43'1212.0
2016-Jan-14 15:33N 26°53' W 014°35'1212.0
2016-Jan-14 14:33N 27°02' W 014°27'1212.2
2016-Jan-14 13:33N 27°12' W 014°18'1212.2
2016-Jan-14 12:34N 27°21' W 014°10'1212.2
2016-Jan-14 11:33N 27°31' W 014°01'1212.5
2016-Jan-14 10:33N 27°41' W 013°53'1312.9
2016-Jan-14 09:33N 27°51' W 013°44'1313.1
2016-Jan-14 08:33N 28°01' W 013°35'1313.2
2016-Jan-14 07:33N 28°12' W 013°26'15312.5
2016-Jan-13 19:17N 30°17' W 011°45'912.3
2016-Jan-13 18:31N 30°25' W 011°39'5312.0
2016-Jan-13 14:06N 31°08' W 011°03'611.6
2016-Jan-13 13:33N 31°13' W 010°59'1211.6
2016-Jan-13 12:33N 31°23' W 010°51'1312.1
2016-Jan-13 11:31N 31°33' W 010°42'1211.9
2016-Jan-13 10:31N 31°43' W 010°34'1211.9
2016-Jan-13 09:33N 31°52' W 010°26'1212.3
2016-Jan-13 08:33N 32°02' W 010°18'1212.4
2016-Jan-13 07:33N 32°12' W 010°09'1211.9
2016-Jan-13 06:31N 32°22' W 010°01'1211.9
2016-Jan-13 05:33N 32°32' W 009°53'30011.1
2016-Jan-12 02:33N 35°59' W 005°31'10 9.7
2016-Jan-12 01:33N 36°02' W 005°19'111 9.8
2016-Jan-11 14:18N 36°20' W 003°04'8 9.3
2016-Jan-11 13:30N 36°21' W 002°55'8 9.1
2016-Jan-11 12:33N 36°22' W 002°44'9 8.6
2016-Jan-11 11:32N 36°23' W 002°33'9 8.9
2016-Jan-11 10:31N 36°25' W 002°22'9 9.1
2016-Jan-11 09:30N 36°27' W 002°11'50810.2
2016-Jan-09 07:32N 37°35' E 008°20'3210.5
2016-Jan-09 04:29N 37°37' E 008°60'23710.4
2016-Jan-08 05:33N 36°26' E 013°43'10 9.9
2016-Jan-08 04:32N 36°21' E 013°54'10 9.8
2016-Jan-08 03:33N 36°19' E 014°06'1010.3
2016-Jan-08 02:33N 36°19' E 014°19'10 9.9
2016-Jan-08 01:33N 36°19' E 014°31'10 9.9
2016-Jan-08 00:33N 36°19' E 014°43'432 9.2
2016-Jan-06 01:33N 37°19' E 023°38'1212.3
2016-Jan-06 00:33N 37°31' E 023°41'1312.6
2016-Jan-05 23:33N 37°43' E 023°39'1010.4
2016-Jan-05 22:34N 37°51' E 023°31'0 0.3
2016-Jan-05 21:31N 37°51' E 023°30'0 0.0
2016-Jan-05 20:31N 37°51' E 023°30'0 0.0
2016-Jan-05 19:31N 37°51' E 023°30'0 0.0
2016-Jan-05 18:25N 37°51' E 023°30'0 0.0
2016-Jan-05 17:31N 37°51' E 023°30'0 0.1
2016-Jan-05 16:31N 37°51' E 023°30'0 0.0
2016-Jan-05 15:31N 37°51' E 023°30'0 0.0
2016-Jan-05 14:31N 37°51' E 023°30'0 0.0
2016-Jan-05 13:31N 37°51' E 023°30'0 0.3
2016-Jan-05 12:31N 37°51' E 023°30'2 2.4
2016-Jan-05 11:33N 37°51' E 023°33'7 6.5
2016-Jan-05 10:34N 37°49' E 023°41'1111.0
2016-Jan-05 09:33N 37°39' E 023°49'1511.6
2016-Jan-05 08:14N 37°38' E 024°08'812.1
2016-Jan-05 07:33N 37°43' E 024°16'  

Dump ship's entire track history